N205WH EDXH-EDXW
Flight info
| Callsign | N205WH |
|---|---|
| Flight time | 0h 21m |
| Altitude | 2000 |
| Route | VFR |
| Aircraft | S22T/L-SBGRY/L |
Departure
| Time | 2026-04-15 20:48 |
|---|---|
| Airport | Helgoland-Düne Airport (EDXH) |
Arrival
| Time | 2026-04-15 21:09 |
|---|---|
| Airport | Westerland Sylt Airport (EDXW) |
| Time | Latitude | Longitude | Altitude | Speed | Heading |
|---|---|---|---|---|---|
| 2026-04-15 20:37 | 54.18647 | 7.91442 | 7 ft | 0 kts | 237° |
| 2026-04-15 20:42 | 54.18646 | 7.91440 | 10 ft | 0 kts | 232° |
| 2026-04-15 20:42 | 54.18633 | 7.91421 | 7 ft | 4 kts | 197° |
| 2026-04-15 20:43 | 54.18601 | 7.91407 | 4 ft | 0 kts | 229° |
| 2026-04-15 20:45 | 54.18600 | 7.91406 | 4 ft | 2 kts | 229° |
| 2026-04-15 20:45 | 54.18614 | 7.91336 | 6 ft | 10 kts | 323° |
| 2026-04-15 20:46 | 54.18658 | 7.91290 | 7 ft | 2 kts | 333° |
| 2026-04-15 20:46 | 54.18660 | 7.91274 | 8 ft | 0 kts | 194° |
| 2026-04-15 20:46 | 54.18656 | 7.91275 | 10 ft | 0 kts | 146° |
| 2026-04-15 20:47 | 54.18618 | 7.91321 | 7 ft | 33 kts | 145° |
| 2026-04-15 20:47 | 54.18292 | 7.91728 | 112 ft | 62 kts | 141° |
| 2026-04-15 20:47 | 54.17924 | 7.92281 | 301 ft | 77 kts | 138° |
| 2026-04-15 20:47 | 54.17531 | 7.92942 | 548 ft | 84 kts | 136° |
| 2026-04-15 20:48 | 54.17157 | 7.93758 | 774 ft | 100 kts | 109° |
| 2026-04-15 20:48 | 54.17399 | 7.94959 | 1090 ft | 120 kts | 43° |
| 2026-04-15 20:48 | 54.18244 | 7.95205 | 1346 ft | 135 kts | 339° |
| 2026-04-15 20:48 | 54.19087 | 7.94505 | 1634 ft | 140 kts | 330° |
| 2026-04-15 20:49 | 54.20004 | 7.93818 | 1845 ft | 149 kts | 332° |
| 2026-04-15 20:49 | 54.20970 | 7.93116 | 2012 ft | 150 kts | 334° |
| 2026-04-15 20:49 | 54.22018 | 7.93019 | 2009 ft | 156 kts | 18° |
| 2026-04-15 20:49 | 54.23040 | 7.93580 | 2011 ft | 156 kts | 18° |
| 2026-04-15 20:50 | 54.24093 | 7.94127 | 2009 ft | 156 kts | 18° |
| 2026-04-15 20:50 | 54.25130 | 7.94666 | 2007 ft | 157 kts | 18° |
| 2026-04-15 20:50 | 54.26180 | 7.95201 | 2006 ft | 158 kts | 18° |
| 2026-04-15 20:50 | 54.27232 | 7.95741 | 2008 ft | 158 kts | 18° |
| 2026-04-15 20:51 | 54.28283 | 7.96284 | 2002 ft | 158 kts | 18° |
| 2026-04-15 20:51 | 54.29340 | 7.96815 | 2001 ft | 158 kts | 18° |
| 2026-04-15 20:51 | 54.30390 | 7.97408 | 2004 ft | 160 kts | 22° |
| 2026-04-15 20:51 | 54.31436 | 7.98073 | 2008 ft | 161 kts | 22° |
| 2026-04-15 20:52 | 54.32485 | 7.98742 | 2000 ft | 161 kts | 22° |
| 2026-04-15 20:52 | 54.33536 | 7.99404 | 2008 ft | 160 kts | 22° |
| 2026-04-15 20:52 | 54.34587 | 8.00067 | 2010 ft | 162 kts | 22° |
| 2026-04-15 20:52 | 54.35646 | 8.00745 | 2009 ft | 162 kts | 22° |
| 2026-04-15 20:53 | 54.36693 | 8.01395 | 2005 ft | 162 kts | 21° |
| 2026-04-15 20:53 | 54.37753 | 8.02038 | 2006 ft | 162 kts | 21° |
| 2026-04-15 20:53 | 54.38816 | 8.02665 | 2007 ft | 162 kts | 21° |
| 2026-04-15 20:53 | 54.39894 | 8.03309 | 2009 ft | 165 kts | 21° |
| 2026-04-15 20:54 | 54.40989 | 8.03973 | 2002 ft | 168 kts | 21° |
| 2026-04-15 20:54 | 54.42102 | 8.04627 | 2009 ft | 170 kts | 21° |
| 2026-04-15 20:54 | 54.43219 | 8.05288 | 2010 ft | 174 kts | 21° |
| 2026-04-15 20:54 | 54.44370 | 8.05986 | 2008 ft | 176 kts | 21° |
| 2026-04-15 20:55 | 54.45534 | 8.06681 | 2009 ft | 177 kts | 21° |
| 2026-04-15 20:55 | 54.46709 | 8.07373 | 2007 ft | 180 kts | 21° |
| 2026-04-15 20:55 | 54.47899 | 8.08088 | 2008 ft | 182 kts | 21° |
| 2026-04-15 20:55 | 54.49096 | 8.08813 | 2003 ft | 182 kts | 21° |
| 2026-04-15 20:56 | 54.50285 | 8.09532 | 2002 ft | 180 kts | 21° |
| 2026-04-15 20:56 | 54.51456 | 8.10255 | 1996 ft | 177 kts | 21° |
| 2026-04-15 20:56 | 54.52591 | 8.10948 | 1992 ft | 174 kts | 21° |
| 2026-04-15 20:56 | 54.53727 | 8.11634 | 1993 ft | 172 kts | 21° |
| 2026-04-15 20:57 | 54.54848 | 8.12347 | 1991 ft | 171 kts | 22° |
| 2026-04-15 20:57 | 54.55957 | 8.13051 | 1992 ft | 169 kts | 22° |
| 2026-04-15 20:57 | 54.57065 | 8.13740 | 1985 ft | 169 kts | 22° |
| 2026-04-15 20:57 | 54.58174 | 8.14429 | 1995 ft | 169 kts | 22° |
| 2026-04-15 20:58 | 54.59278 | 8.15121 | 1994 ft | 168 kts | 22° |
| 2026-04-15 20:58 | 54.60365 | 8.15794 | 2000 ft | 168 kts | 22° |
| 2026-04-15 20:58 | 54.61483 | 8.16483 | 1997 ft | 169 kts | 21° |
| 2026-04-15 20:58 | 54.62577 | 8.17160 | 2000 ft | 169 kts | 21° |
| 2026-04-15 20:59 | 54.63680 | 8.17858 | 1999 ft | 168 kts | 22° |
| 2026-04-15 20:59 | 54.64787 | 8.18538 | 2000 ft | 169 kts | 21° |
| 2026-04-15 20:59 | 54.65902 | 8.19173 | 2003 ft | 169 kts | 20° |
| 2026-04-15 20:59 | 54.67019 | 8.19822 | 2006 ft | 170 kts | 20° |
| 2026-04-15 21:00 | 54.68145 | 8.20471 | 2002 ft | 170 kts | 20° |
| 2026-04-15 21:00 | 54.69258 | 8.21112 | 1910 ft | 164 kts | 21° |
| 2026-04-15 21:00 | 54.70320 | 8.21704 | 1767 ft | 157 kts | 20° |
| 2026-04-15 21:00 | 54.71344 | 8.22264 | 1629 ft | 154 kts | 21° |
| 2026-04-15 21:01 | 54.72362 | 8.22797 | 1492 ft | 151 kts | 21° |
| 2026-04-15 21:01 | 54.73369 | 8.23297 | 1359 ft | 150 kts | 20° |
| 2026-04-15 21:01 | 54.74359 | 8.23838 | 1227 ft | 149 kts | 24° |
| 2026-04-15 21:01 | 54.75342 | 8.24394 | 1096 ft | 148 kts | 24° |
| 2026-04-15 21:02 | 54.76311 | 8.24921 | 1015 ft | 142 kts | 24° |
| 2026-04-15 21:02 | 54.77245 | 8.25332 | 1000 ft | 139 kts | 7° |
| 2026-04-15 21:02 | 54.78209 | 8.25303 | 999 ft | 138 kts | 3° |
| 2026-04-15 21:02 | 54.79159 | 8.25263 | 1004 ft | 138 kts | 3° |
| 2026-04-15 21:03 | 54.80123 | 8.25190 | 1005 ft | 139 kts | 3° |
| 2026-04-15 21:03 | 54.81096 | 8.25136 | 999 ft | 140 kts | 4° |
| 2026-04-15 21:03 | 54.82069 | 8.25113 | 1005 ft | 140 kts | 6° |
| 2026-04-15 21:03 | 54.83042 | 8.25179 | 1007 ft | 140 kts | 7° |
| 2026-04-15 21:04 | 54.84018 | 8.25264 | 1009 ft | 140 kts | 8° |
| 2026-04-15 21:04 | 54.85000 | 8.25378 | 1008 ft | 142 kts | 11° |
| 2026-04-15 21:04 | 54.85984 | 8.25540 | 1017 ft | 143 kts | 13° |
| 2026-04-15 21:04 | 54.86976 | 8.25738 | 1018 ft | 143 kts | 14° |
| 2026-04-15 21:05 | 54.87940 | 8.25987 | 1010 ft | 134 kts | 15° |
| 2026-04-15 21:05 | 54.88823 | 8.26197 | 998 ft | 123 kts | 14° |
| 2026-04-15 21:05 | 54.89630 | 8.26377 | 998 ft | 113 kts | 14° |
| 2026-04-15 21:05 | 54.90381 | 8.26587 | 1001 ft | 109 kts | 17° |
| 2026-04-15 21:06 | 54.91162 | 8.26826 | 1006 ft | 116 kts | 19° |
| 2026-04-15 21:06 | 54.91969 | 8.27145 | 1023 ft | 121 kts | 20° |
| 2026-04-15 21:06 | 54.92806 | 8.27476 | 1022 ft | 125 kts | 20° |
| 2026-04-15 21:06 | 54.93635 | 8.27807 | 1009 ft | 117 kts | 20° |
| 2026-04-15 21:07 | 54.94396 | 8.28131 | 1001 ft | 107 kts | 22° |
| 2026-04-15 21:07 | 54.95054 | 8.28611 | 978 ft | 96 kts | 50° |
| 2026-04-15 21:07 | 54.95304 | 8.29519 | 948 ft | 81 kts | 103° |
| 2026-04-15 21:07 | 54.94936 | 8.30166 | 874 ft | 82 kts | 161° |
| 2026-04-15 21:08 | 54.94383 | 8.30251 | 736 ft | 78 kts | 154° |
| 2026-04-15 21:08 | 54.93948 | 8.30832 | 617 ft | 80 kts | 135° |
| 2026-04-15 21:08 | 54.93491 | 8.31410 | 516 ft | 83 kts | 141° |
| 2026-04-15 21:08 | 54.93002 | 8.31970 | 386 ft | 85 kts | 142° |
| 2026-04-15 21:09 | 54.92526 | 8.32550 | 276 ft | 84 kts | 139° |
| 2026-04-15 21:09 | 54.92064 | 8.33127 | 123 ft | 80 kts | 140° |
| 2026-04-15 21:09 | 54.91633 | 8.33666 | 31 ft | 68 kts | 143° |
| 2026-04-15 21:09 | 54.91400 | 8.33954 | 30 ft | 22 kts | 143° |
| 2026-04-15 21:10 | 54.91310 | 8.34010 | 30 ft | 12 kts | 228° |
| 2026-04-15 21:10 | 54.91254 | 8.33849 | 29 ft | 17 kts | 238° |
| 2026-04-15 21:10 | 54.91191 | 8.33659 | 28 ft | 18 kts | 237° |
| 2026-04-15 21:10 | 54.91119 | 8.33446 | 28 ft | 23 kts | 239° |
| 2026-04-15 21:11 | 54.91039 | 8.33208 | 29 ft | 18 kts | 241° |
| 2026-04-15 21:11 | 54.91010 | 8.33018 | 28 ft | 16 kts | 294° |
| 2026-04-15 21:11 | 54.91084 | 8.32862 | 25 ft | 17 kts | 311° |
| 2026-04-15 21:11 | 54.91161 | 8.32708 | 23 ft | 16 kts | 310° |
| 2026-04-15 21:12 | 54.91215 | 8.32583 | 23 ft | 8 kts | 320° |
| 2026-04-15 21:12 | 54.91267 | 8.32517 | 22 ft | 10 kts | 294° |
| 2026-04-15 21:12 | 54.91264 | 8.32472 | 22 ft | 0 kts | 241° |